Airfield :
LOGIN :

Register | Disclaimer

   EN    FR    IT 

 










Legend :    VFR   Marginal VFR   IFR   Intensive IFR   Very Intensive IFR
Visi :
Ceiling :
>= 8 km
>= 3000ft
5 to 8 km
1000 to 3000 ft
1500m to 5 km
500 to 1000 ft
800 to 1500m
200 to 500 ft
< 800m
< 200 ft
Symbols :   Thunderstorms  Fog  Heavy snow  Heavy precipitations  Wind > 20 kt
SIGMETs :     Misc.  Thunderstorms  Icing  Turbulence  Mountain Waves  Volcanic Ashes






- Airport Elevation : 463 ft
- IATA code : SZY
- AIRPORT CLOSED.


EPSY - Szczytno

CURRENT METAR :
  • 191230Z 15008KT 100V200 CAVOK 18/04 Q1017

EXPIRED METARs :
  • 191200Z 15006KT 100V200 9999 VCSH SCT043CB 18/05 Q1017
  • 191130Z 14008KT 090V200 CAVOK 18/07 Q1017
  • 191100Z VRB04KT 9999 FEW044 17/08 Q1017
  • 191030Z VRB05KT 9999 FEW040 17/07 Q1017
  • 191000Z 13005KT 090V230 CAVOK 17/07 Q1018

TAF TAF EPSY
Valid from the 19 at 12:00 until the 19 at 21:00 UTC


191130Z 1912/1921 14010KT 9999 SCT040
PROB40
TEMPO 1912/1918 VRB15G27KT 4000 SHRA BKN025CB
PROB30
TEMPO 1914/1917 2000 TSRA BKN012CB



MET'MAP, your aeronautical weather chart ! - Copyright ORBIFLY December 2007 - Disclaimer

ORBIFLY MET'MAP TEAM :

Programming & Development : Alexandra Zaïnal
Concept & original design : Baudouin d'Aumeries
Assistance for programming : Marc-Olivier Méhu
Technical & hardware support : Manuel Goepfert

Contact : metmap@orbifly.com




SOURCES & CREDITS :

   NOAA